sensor_id;sensor_type;location;lat;lon;timestamp;temperature;humidity
7530;DHT22;3806;52.270;10.544;2022-12-18T00:03:35;-3.00;95.40
7530;DHT22;3806;52.270;10.544;2022-12-18T00:06:01;-3.00;95.40
7530;DHT22;3806;52.270;10.544;2022-12-18T00:08:28;-3.00;95.40
7530;DHT22;3806;52.270;10.544;2022-12-18T00:10:54;-3.10;95.50
7530;DHT22;3806;52.270;10.544;2022-12-18T00:13:19;-3.10;95.50
7530;DHT22;3806;52.270;10.544;2022-12-18T00:15:45;-3.10;95.50
7530;DHT22;3806;52.270;10.544;2022-12-18T00:18:11;-3.00;95.60
7530;DHT22;3806;52.270;10.544;2022-12-18T00:20:37;-3.10;95.50
7530;DHT22;3806;52.270;10.544;2022-12-18T00:23:04;-3.20;95.40
7530;DHT22;3806;52.270;10.544;2022-12-18T00:25:31;-3.20;95.50
7530;DHT22;3806;52.270;10.544;2022-12-18T00:27:57;-3.20;95.60
7530;DHT22;3806;52.270;10.544;2022-12-18T00:30:23;-3.20;95.60
7530;DHT22;3806;52.270;10.544;2022-12-18T00:32:48;-3.20;95.50
7530;DHT22;3806;52.270;10.544;2022-12-18T00:35:14;-3.30;95.60
7530;DHT22;3806;52.270;10.544;2022-12-18T00:37:39;-3.40;95.60
7530;DHT22;3806;52.270;10.544;2022-12-18T00:40:05;-3.40;95.60
7530;DHT22;3806;52.270;10.544;2022-12-18T00:42:31;-3.40;95.70
7530;DHT22;3806;52.270;10.544;2022-12-18T00:45:15;-3.40;95.70
7530;DHT22;3806;52.270;10.544;2022-12-18T00:47:41;-3.30;95.70
7530;DHT22;3806;52.270;10.544;2022-12-18T00:50:07;-3.30;95.60
7530;DHT22;3806;52.270;10.544;2022-12-18T00:52:33;-3.30;95.60
7530;DHT22;3806;52.270;10.544;2022-12-18T00:54:58;-3.30;95.60
7530;DHT22;3806;52.270;10.544;2022-12-18T00:57:24;-3.30;95.50
7530;DHT22;3806;52.270;10.544;2022-12-18T00:59:49;-3.30;95.40
7530;DHT22;3806;52.270;10.544;2022-12-18T01:02:15;-3.30;95.20
7530;DHT22;3806;52.270;10.544;2022-12-18T01:04:40;-3.40;95.40
7530;DHT22;3806;52.270;10.544;2022-12-18T01:07:06;-3.40;95.20
7530;DHT22;3806;52.270;10.544;2022-12-18T01:09:32;-3.50;95.30
7530;DHT22;3806;52.270;10.544;2022-12-18T01:11:57;-3.40;95.40
7530;DHT22;3806;52.270;10.544;2022-12-18T01:14:23;-3.40;95.40
7530;DHT22;3806;52.270;10.544;2022-12-18T01:16:48;-3.40;95.40
7530;DHT22;3806;52.270;10.544;2022-12-18T01:19:14;-3.40;95.30
7530;DHT22;3806;52.270;10.544;2022-12-18T01:21:39;-3.40;95.20
7530;DHT22;3806;52.270;10.544;2022-12-18T01:24:06;-3.50;95.00
7530;DHT22;3806;52.270;10.544;2022-12-18T01:26:32;-3.50;95.00
7530;DHT22;3806;52.270;10.544;2022-12-18T01:28:58;-3.50;95.10
7530;DHT22;3806;52.270;10.544;2022-12-18T01:31:26;-3.60;95.20
7530;DHT22;3806;52.270;10.544;2022-12-18T01:33:52;-3.50;95.30
7530;DHT22;3806;52.270;10.544;2022-12-18T01:36:21;-3.50;95.20
7530;DHT22;3806;52.270;10.544;2022-12-18T01:38:47;-3.50;95.20
7530;DHT22;3806;52.270;10.544;2022-12-18T01:41:14;-3.60;95.00
7530;DHT22;3806;52.270;10.544;2022-12-18T01:43:46;-3.60;94.90
7530;DHT22;3806;52.270;10.544;2022-12-18T01:46:13;-3.70;94.90
7530;DHT22;3806;52.270;10.544;2022-12-18T01:48:39;-3.70;94.90
7530;DHT22;3806;52.270;10.544;2022-12-18T01:51:06;-3.80;94.90
7530;DHT22;3806;52.270;10.544;2022-12-18T01:53:33;-3.80;95.00
7530;DHT22;3806;52.270;10.544;2022-12-18T01:55:59;-3.80;95.10
7530;DHT22;3806;52.270;10.544;2022-12-18T01:58:51;-3.80;95.10
7530;DHT22;3806;52.270;10.544;2022-12-18T02:01:21;-3.90;94.90
7530;DHT22;3806;52.270;10.544;2022-12-18T02:03:47;-3.90;94.80
7530;DHT22;3806;52.270;10.544;2022-12-18T02:06:20;-4.00;94.70
7530;DHT22;3806;52.270;10.544;2022-12-18T02:09:02;-4.10;94.70
7530;DHT22;3806;52.270;10.544;2022-12-18T02:14:39;-4.10;94.80
7530;DHT22;3806;52.270;10.544;2022-12-18T02:17:23;-4.20;94.70
7530;DHT22;3806;52.270;10.544;2022-12-18T02:20:17;-4.20;94.70
7530;DHT22;3806;52.270;10.544;2022-12-18T02:28:20;-4.30;95.30
7530;DHT22;3806;52.270;10.544;2022-12-18T02:30:49;-4.30;95.30
7530;DHT22;3806;52.270;10.544;2022-12-18T02:33:16;-4.30;95.20
7530;DHT22;3806;52.270;10.544;2022-12-18T02:35:43;-4.20;95.20
7530;DHT22;3806;52.270;10.544;2022-12-18T02:38:12;-4.20;95.20
7530;DHT22;3806;52.270;10.544;2022-12-18T02:40:38;-4.20;95.10
7530;DHT22;3806;52.270;10.544;2022-12-18T02:43:10;-4.20;95.00
7530;DHT22;3806;52.270;10.544;2022-12-18T02:48:34;-4.20;94.80
7530;DHT22;3806;52.270;10.544;2022-12-18T02:51:10;-4.30;94.60
7530;DHT22;3806;52.270;10.544;2022-12-18T02:53:46;-4.30;94.60
7530;DHT22;3806;52.270;10.544;2022-12-18T02:57:19;-4.30;94.60
7530;DHT22;3806;52.270;10.544;2022-12-18T02:59:17;-4.40;94.50
7530;DHT22;3806;52.270;10.544;2022-12-18T03:04:26;-4.50;94.70
7530;DHT22;3806;52.270;10.544;2022-12-18T03:06:54;-4.50;94.90
7530;DHT22;3806;52.270;10.544;2022-12-18T03:09:24;-4.50;95.00
7530;DHT22;3806;52.270;10.544;2022-12-18T03:11:56;-4.50;95.00
7530;DHT22;3806;52.270;10.544;2022-12-18T03:14:43;-4.50;95.10
7530;DHT22;3806;52.270;10.544;2022-12-18T03:17:14;-4.50;95.20
7530;DHT22;3806;52.270;10.544;2022-12-18T03:19:42;-4.40;95.50
7530;DHT22;3806;52.270;10.544;2022-12-18T03:22:10;-4.40;95.10
7530;DHT22;3806;52.270;10.544;2022-12-18T03:24:36;-4.40;95.20
7530;DHT22;3806;52.270;10.544;2022-12-18T03:27:08;-4.40;95.20
7530;DHT22;3806;52.270;10.544;2022-12-18T03:29:44;-4.40;95.20
7530;DHT22;3806;52.270;10.544;2022-12-18T03:32:16;-4.40;95.20
7530;DHT22;3806;52.270;10.544;2022-12-18T03:34:47;-4.40;95.10
7530;DHT22;3806;52.270;10.544;2022-12-18T03:37:14;-4.40;95.30
7530;DHT22;3806;52.270;10.544;2022-12-18T03:39:40;-4.40;95.00
7530;DHT22;3806;52.270;10.544;2022-12-18T03:47:28;-4.30;95.00
7530;DHT22;3806;52.270;10.544;2022-12-18T03:52:41;-4.30;94.70
7530;DHT22;3806;52.270;10.544;2022-12-18T03:55:10;-4.40;94.60
7530;DHT22;3806;52.270;10.544;2022-12-18T03:57:38;-4.40;94.80
7530;DHT22;3806;52.270;10.544;2022-12-18T04:00:08;-4.40;94.80
7530;DHT22;3806;52.270;10.544;2022-12-18T04:02:35;-4.40;94.80
7530;DHT22;3806;52.270;10.544;2022-12-18T04:05:03;-4.40;94.80
7530;DHT22;3806;52.270;10.544;2022-12-18T04:07:30;-4.50;94.90
7530;DHT22;3806;52.270;10.544;2022-12-18T04:09:57;-4.50;95.00
7530;DHT22;3806;52.270;10.544;2022-12-18T04:12:28;-4.50;95.00
7530;DHT22;3806;52.270;10.544;2022-12-18T04:14:54;-4.50;95.10
7530;DHT22;3806;52.270;10.544;2022-12-18T04:17:20;-4.40;95.10
7530;DHT22;3806;52.270;10.544;2022-12-18T04:19:46;-4.40;95.10
7530;DHT22;3806;52.270;10.544;2022-12-18T04:22:12;-4.40;95.00
7530;DHT22;3806;52.270;10.544;2022-12-18T04:24:37;-4.40;95.00
7530;DHT22;3806;52.270;10.544;2022-12-18T04:27:03;-4.40;95.00
7530;DHT22;3806;52.270;10.544;2022-12-18T04:29:29;-4.40;94.90
7530;DHT22;3806;52.270;10.544;2022-12-18T04:31:55;-4.40;94.90
7530;DHT22;3806;52.270;10.544;2022-12-18T04:34:20;-4.40;94.90
7530;DHT22;3806;52.270;10.544;2022-12-18T04:36:46;-4.40;94.90
7530;DHT22;3806;52.270;10.544;2022-12-18T04:39:12;-4.30;94.80
7530;DHT22;3806;52.270;10.544;2022-12-18T04:41:38;-4.40;94.70
7530;DHT22;3806;52.270;10.544;2022-12-18T04:44:03;-4.40;94.70
7530;DHT22;3806;52.270;10.544;2022-12-18T04:46:29;-4.40;94.70
7530;DHT22;3806;52.270;10.544;2022-12-18T04:48:55;-4.40;94.60
7530;DHT22;3806;52.270;10.544;2022-12-18T04:51:20;-4.50;94.50
7530;DHT22;3806;52.270;10.544;2022-12-18T04:53:46;-4.50;94.40
7530;DHT22;3806;52.270;10.544;2022-12-18T04:56:14;-4.50;94.40
7530;DHT22;3806;52.270;10.544;2022-12-18T04:58:41;-4.50;94.70
7530;DHT22;3806;52.270;10.544;2022-12-18T05:01:08;-4.50;94.40
7530;DHT22;3806;52.270;10.544;2022-12-18T05:03:35;-4.60;94.30
7530;DHT22;3806;52.270;10.544;2022-12-18T05:06:00;-4.60;94.30
7530;DHT22;3806;52.270;10.544;2022-12-18T05:08:26;-4.60;94.30
7530;DHT22;3806;52.270;10.544;2022-12-18T05:11:07;-4.60;94.20
7530;DHT22;3806;52.270;10.544;2022-12-18T05:13:34;-4.70;94.30
7530;DHT22;3806;52.270;10.544;2022-12-18T05:16:00;-4.70;94.30
7530;DHT22;3806;52.270;10.544;2022-12-18T05:18:26;-4.70;94.30
7530;DHT22;3806;52.270;10.544;2022-12-18T05:20:52;-4.70;94.30
7530;DHT22;3806;52.270;10.544;2022-12-18T05:23:19;-4.70;94.30
7530;DHT22;3806;52.270;10.544;2022-12-18T05:26:04;-4.70;94.40
7530;DHT22;3806;52.270;10.544;2022-12-18T05:28:33;-4.70;94.50
7530;DHT22;3806;52.270;10.544;2022-12-18T05:31:00;-4.70;94.40
7530;DHT22;3806;52.270;10.544;2022-12-18T05:33:28;-4.70;94.40
7530;DHT22;3806;52.270;10.544;2022-12-18T05:35:56;-4.70;94.60
7530;DHT22;3806;52.270;10.544;2022-12-18T05:38:23;-4.70;94.70
7530;DHT22;3806;52.270;10.544;2022-12-18T05:40:50;-4.60;94.80
7530;DHT22;3806;52.270;10.544;2022-12-18T05:43:16;-4.60;94.80
7530;DHT22;3806;52.270;10.544;2022-12-18T05:45:42;-4.60;94.60
7530;DHT22;3806;52.270;10.544;2022-12-18T05:48:12;-4.60;94.80
7530;DHT22;3806;52.270;10.544;2022-12-18T05:50:39;-4.60;94.40
7530;DHT22;3806;52.270;10.544;2022-12-18T05:53:05;-4.60;94.40
7530;DHT22;3806;52.270;10.544;2022-12-18T05:55:35;-4.60;94.30
7530;DHT22;3806;52.270;10.544;2022-12-18T05:58:02;-4.60;94.30
7530;DHT22;3806;52.270;10.544;2022-12-18T06:00:28;-4.60;94.30
7530;DHT22;3806;52.270;10.544;2022-12-18T06:02:54;-4.60;94.30
7530;DHT22;3806;52.270;10.544;2022-12-18T06:05:20;-4.60;94.30
7530;DHT22;3806;52.270;10.544;2022-12-18T06:07:45;-4.60;94.80
7530;DHT22;3806;52.270;10.544;2022-12-18T06:10:11;-4.60;94.80
7530;DHT22;3806;52.270;10.544;2022-12-18T06:12:37;-4.60;94.80
7530;DHT22;3806;52.270;10.544;2022-12-18T06:15:03;-4.50;94.70
7530;DHT22;3806;52.270;10.544;2022-12-18T06:17:33;-4.50;94.60
7530;DHT22;3806;52.270;10.544;2022-12-18T06:19:58;-4.50;94.40
7530;DHT22;3806;52.270;10.544;2022-12-18T06:22:24;-4.50;94.30
7530;DHT22;3806;52.270;10.544;2022-12-18T06:24:50;-4.50;94.20
7530;DHT22;3806;52.270;10.544;2022-12-18T06:27:16;-4.50;94.10
7530;DHT22;3806;52.270;10.544;2022-12-18T06:29:42;-4.50;94.00
7530;DHT22;3806;52.270;10.544;2022-12-18T06:32:07;-4.50;93.90
7530;DHT22;3806;52.270;10.544;2022-12-18T06:34:33;-4.50;93.80
7530;DHT22;3806;52.270;10.544;2022-12-18T06:36:59;-4.40;93.80
7530;DHT22;3806;52.270;10.544;2022-12-18T06:39:26;-4.40;93.80
7530;DHT22;3806;52.270;10.544;2022-12-18T06:41:52;-4.40;93.80
7530;DHT22;3806;52.270;10.544;2022-12-18T06:44:18;-4.50;93.40
7530;DHT22;3806;52.270;10.544;2022-12-18T06:46:43;-4.60;93.20
7530;DHT22;3806;52.270;10.544;2022-12-18T06:49:09;-4.70;93.50
7530;DHT22;3806;52.270;10.544;2022-12-18T06:51:35;-4.70;93.70
7530;DHT22;3806;52.270;10.544;2022-12-18T06:54:00;-4.70;93.80
7530;DHT22;3806;52.270;10.544;2022-12-18T06:56:26;-4.70;94.00
7530;DHT22;3806;52.270;10.544;2022-12-18T06:58:52;-4.70;94.20
7530;DHT22;3806;52.270;10.544;2022-12-18T07:01:17;-4.70;94.20
7530;DHT22;3806;52.270;10.544;2022-12-18T07:03:43;-4.70;94.10
7530;DHT22;3806;52.270;10.544;2022-12-18T07:06:16;-4.60;94.10
7530;DHT22;3806;52.270;10.544;2022-12-18T07:08:43;-4.70;93.90
7530;DHT22;3806;52.270;10.544;2022-12-18T07:11:08;-4.70;93.90
7530;DHT22;3806;52.270;10.544;2022-12-18T07:13:34;-4.70;93.90
7530;DHT22;3806;52.270;10.544;2022-12-18T07:16:11;-4.70;93.80
7530;DHT22;3806;52.270;10.544;2022-12-18T07:18:36;-4.70;93.90
7530;DHT22;3806;52.270;10.544;2022-12-18T07:21:06;-4.70;93.70
7530;DHT22;3806;52.270;10.544;2022-12-18T07:23:34;-4.70;93.70
7530;DHT22;3806;52.270;10.544;2022-12-18T07:26:11;-4.80;93.80
7530;DHT22;3806;52.270;10.544;2022-12-18T07:28:38;-4.70;93.90
7530;DHT22;3806;52.270;10.544;2022-12-18T07:31:13;-4.80;94.10
7530;DHT22;3806;52.270;10.544;2022-12-18T07:33:40;-4.80;94.00
7530;DHT22;3806;52.270;10.544;2022-12-18T07:36:07;-4.70;94.10
7530;DHT22;3806;52.270;10.544;2022-12-18T07:38:34;-4.70;94.10
7530;DHT22;3806;52.270;10.544;2022-12-18T07:41:05;-4.70;93.90
7530;DHT22;3806;52.270;10.544;2022-12-18T07:43:31;-4.70;93.90
7530;DHT22;3806;52.270;10.544;2022-12-18T07:45:57;-4.70;93.80
7530;DHT22;3806;52.270;10.544;2022-12-18T07:48:23;-4.70;93.80
7530;DHT22;3806;52.270;10.544;2022-12-18T07:50:48;-4.70;93.70
7530;DHT22;3806;52.270;10.544;2022-12-18T07:53:14;-4.60;93.80
7530;DHT22;3806;52.270;10.544;2022-12-18T07:55:43;-4.60;93.70
7530;DHT22;3806;52.270;10.544;2022-12-18T07:58:08;-4.60;93.70
7530;DHT22;3806;52.270;10.544;2022-12-18T08:00:34;-4.60;93.80
7530;DHT22;3806;52.270;10.544;2022-12-18T08:03:00;-4.50;93.80
7530;DHT22;3806;52.270;10.544;2022-12-18T08:05:26;-4.50;93.70
7530;DHT22;3806;52.270;10.544;2022-12-18T08:07:52;-4.50;93.70
7530;DHT22;3806;52.270;10.544;2022-12-18T08:10:18;-4.40;93.70
7530;DHT22;3806;52.270;10.544;2022-12-18T08:12:44;-4.30;93.60
7530;DHT22;3806;52.270;10.544;2022-12-18T08:15:10;-4.20;93.50
7530;DHT22;3806;52.270;10.544;2022-12-18T08:17:36;-4.20;93.40
7530;DHT22;3806;52.270;10.544;2022-12-18T08:20:01;-4.20;93.30
7530;DHT22;3806;52.270;10.544;2022-12-18T08:22:27;-4.10;93.30
7530;DHT22;3806;52.270;10.544;2022-12-18T08:24:52;-4.00;93.20
7530;DHT22;3806;52.270;10.544;2022-12-18T08:27:18;-3.90;93.10
7530;DHT22;3806;52.270;10.544;2022-12-18T08:29:44;-3.80;93.00
7530;DHT22;3806;52.270;10.544;2022-12-18T08:32:09;-3.70;92.90
7530;DHT22;3806;52.270;10.544;2022-12-18T08:34:35;-3.60;92.90
7530;DHT22;3806;52.270;10.544;2022-12-18T08:37:01;-3.40;92.80
7530;DHT22;3806;52.270;10.544;2022-12-18T08:39:26;-2.90;94.00
7530;DHT22;3806;52.270;10.544;2022-12-18T08:41:52;-2.00;93.60
7530;DHT22;3806;52.270;10.544;2022-12-18T08:44:36;-1.60;91.50
7530;DHT22;3806;52.270;10.544;2022-12-18T08:47:06;-1.40;89.80
7530;DHT22;3806;52.270;10.544;2022-12-18T08:49:32;-1.20;88.40
7530;DHT22;3806;52.270;10.544;2022-12-18T08:51:58;-1.00;87.80
7530;DHT22;3806;52.270;10.544;2022-12-18T08:54:24;-0.40;87.30
7530;DHT22;3806;52.270;10.544;2022-12-18T08:56:50;0.50;85.90
7530;DHT22;3806;52.270;10.544;2022-12-18T08:59:16;1.90;83.90
7530;DHT22;3806;52.270;10.544;2022-12-18T09:01:42;3.60;78.20
7530;DHT22;3806;52.270;10.544;2022-12-18T09:04:09;5.30;70.70
7530;DHT22;3806;52.270;10.544;2022-12-18T09:06:34;6.70;59.70
7530;DHT22;3806;52.270;10.544;2022-12-18T09:09:00;7.50;53.90
7530;DHT22;3806;52.270;10.544;2022-12-18T09:11:27;7.20;49.10
7530;DHT22;3806;52.270;10.544;2022-12-18T09:13:54;6.20;46.00
7530;DHT22;3806;52.270;10.544;2022-12-18T09:16:21;5.20;46.20
7530;DHT22;3806;52.270;10.544;2022-12-18T09:18:47;4.10;47.00
7530;DHT22;3806;52.270;10.544;2022-12-18T09:21:19;3.10;48.70
7530;DHT22;3806;52.270;10.544;2022-12-18T09:23:49;2.30;50.90
7530;DHT22;3806;52.270;10.544;2022-12-18T09:26:15;1.60;52.90
7530;DHT22;3806;52.270;10.544;2022-12-18T09:28:41;1.10;54.60
7530;DHT22;3806;52.270;10.544;2022-12-18T09:31:08;0.60;56.70
7530;DHT22;3806;52.270;10.544;2022-12-18T09:33:37;0.30;59.10
7530;DHT22;3806;52.270;10.544;2022-12-18T09:36:05;-0.10;61.60
7530;DHT22;3806;52.270;10.544;2022-12-18T09:38:32;-0.30;64.40
7530;DHT22;3806;52.270;10.544;2022-12-18T09:41:03;-0.60;66.00
7530;DHT22;3806;52.270;10.544;2022-12-18T09:43:33;-0.80;68.50
7530;DHT22;3806;52.270;10.544;2022-12-18T09:46:18;-0.90;70.40
7530;DHT22;3806;52.270;10.544;2022-12-18T09:48:48;-0.90;72.80
7530;DHT22;3806;52.270;10.544;2022-12-18T09:51:19;-1.00;75.00
7530;DHT22;3806;52.270;10.544;2022-12-18T09:53:56;-1.00;75.60
7530;DHT22;3806;52.270;10.544;2022-12-18T09:56:23;-1.00;77.00
7530;DHT22;3806;52.270;10.544;2022-12-18T09:59:02;-0.90;78.10
7530;DHT22;3806;52.270;10.544;2022-12-18T10:01:29;-1.00;78.80
7530;DHT22;3806;52.270;10.544;2022-12-18T10:03:55;-1.00;79.40
7530;DHT22;3806;52.270;10.544;2022-12-18T10:09:04;-1.10;81.00
7530;DHT22;3806;52.270;10.544;2022-12-18T10:14:45;-1.10;83.30
7530;DHT22;3806;52.270;10.544;2022-12-18T10:19:59;-0.90;84.10
7530;DHT22;3806;52.270;10.544;2022-12-18T10:25:29;-0.80;83.80
7530;DHT22;3806;52.270;10.544;2022-12-18T10:28:07;-0.70;84.10
7530;DHT22;3806;52.270;10.544;2022-12-18T10:30:35;-0.60;83.50
7530;DHT22;3806;52.270;10.544;2022-12-18T10:33:03;-0.50;82.90
7530;DHT22;3806;52.270;10.544;2022-12-18T10:35:29;-0.40;82.80
7530;DHT22;3806;52.270;10.544;2022-12-18T10:40:32;-0.20;82.60
7530;DHT22;3806;52.270;10.544;2022-12-18T10:43:10;-0.20;82.30
7530;DHT22;3806;52.270;10.544;2022-12-18T10:45:36;-0.10;82.50
7530;DHT22;3806;52.270;10.544;2022-12-18T10:48:03;-0.10;82.50
7530;DHT22;3806;52.270;10.544;2022-12-18T10:50:32;-0.10;82.30
7530;DHT22;3806;52.270;10.544;2022-12-18T10:52:59;-0.20;82.80
7530;DHT22;3806;52.270;10.544;2022-12-18T10:55:38;-0.20;83.40
7530;DHT22;3806;52.270;10.544;2022-12-18T10:58:37;-0.20;83.80
7530;DHT22;3806;52.270;10.544;2022-12-18T11:01:12;-0.30;84.40
7530;DHT22;3806;52.270;10.544;2022-12-18T11:06:12;-0.10;85.50
7530;DHT22;3806;52.270;10.544;2022-12-18T11:08:39;0.00;85.10
7530;DHT22;3806;52.270;10.544;2022-12-18T11:11:20;0.00;85.10
7530;DHT22;3806;52.270;10.544;2022-12-18T11:14:16;0.10;85.30
7530;DHT22;3806;52.270;10.544;2022-12-18T11:16:46;0.10;85.70
7530;DHT22;3806;52.270;10.544;2022-12-18T11:19:30;0.20;86.10
7530;DHT22;3806;52.270;10.544;2022-12-18T11:21:57;0.20;86.30
7530;DHT22;3806;52.270;10.544;2022-12-18T11:24:30;0.20;86.50
7530;DHT22;3806;52.270;10.544;2022-12-18T11:27:02;0.20;86.50
7530;DHT22;3806;52.270;10.544;2022-12-18T11:29:33;0.20;87.10
7530;DHT22;3806;52.270;10.544;2022-12-18T11:34:42;0.20;88.10
7530;DHT22;3806;52.270;10.544;2022-12-18T11:37:11;0.30;88.60
7530;DHT22;3806;52.270;10.544;2022-12-18T11:39:40;0.30;88.90
7530;DHT22;3806;52.270;10.544;2022-12-18T11:42:24;0.40;89.30
7530;DHT22;3806;52.270;10.544;2022-12-18T11:45:18;0.40;89.60
7530;DHT22;3806;52.270;10.544;2022-12-18T11:47:49;0.50;89.90
7530;DHT22;3806;52.270;10.544;2022-12-18T11:50:20;0.60;89.90
7530;DHT22;3806;52.270;10.544;2022-12-18T11:52:47;0.70;90.00
7530;DHT22;3806;52.270;10.544;2022-12-18T11:55:16;0.80;90.10
7530;DHT22;3806;52.270;10.544;2022-12-18T11:57:54;0.90;90.00
7530;DHT22;3806;52.270;10.544;2022-12-18T12:00:23;1.00;90.10
7530;DHT22;3806;52.270;10.544;2022-12-18T12:08:57;1.10;90.00
7530;DHT22;3806;52.270;10.544;2022-12-18T12:16:59;1.20;89.90
7530;DHT22;3806;52.270;10.544;2022-12-18T12:27:41;1.30;86.70
7530;DHT22;3806;52.270;10.544;2022-12-18T12:35:51;1.20;86.00
7530;DHT22;3806;52.270;10.544;2022-12-18T12:38:34;1.10;86.30
7530;DHT22;3806;52.270;10.544;2022-12-18T12:41:06;1.20;86.60
7530;DHT22;3806;52.270;10.544;2022-12-18T12:43:56;1.10;86.90
7530;DHT22;3806;52.270;10.544;2022-12-18T12:46:23;1.10;87.10
7530;DHT22;3806;52.270;10.544;2022-12-18T12:48:58;1.10;87.50
7530;DHT22;3806;52.270;10.544;2022-12-18T12:51:28;1.10;87.90
7530;DHT22;3806;52.270;10.544;2022-12-18T12:53:57;1.00;88.10
7530;DHT22;3806;52.270;10.544;2022-12-18T12:56:45;1.00;88.30
7530;DHT22;3806;52.270;10.544;2022-12-18T12:59:31;1.00;89.10
7530;DHT22;3806;52.270;10.544;2022-12-18T13:05:02;0.90;89.30
7530;DHT22;3806;52.270;10.544;2022-12-18T13:07:41;0.90;89.60
7530;DHT22;3806;52.270;10.544;2022-12-18T13:20:39;0.80;91.00
7530;DHT22;3806;52.270;10.544;2022-12-18T13:31:12;0.70;91.10
7530;DHT22;3806;52.270;10.544;2022-12-18T13:33:43;0.70;90.90
7530;DHT22;3806;52.270;10.544;2022-12-18T13:36:14;0.70;90.90
7530;DHT22;3806;52.270;10.544;2022-12-18T13:38:42;0.60;90.40
7530;DHT22;3806;52.270;10.544;2022-12-18T13:43:45;0.60;88.80
7530;DHT22;3806;52.270;10.544;2022-12-18T13:46:29;0.60;88.30
7530;DHT22;3806;52.270;10.544;2022-12-18T13:49:13;0.60;87.60
7530;DHT22;3806;52.270;10.544;2022-12-18T13:51:54;0.50;87.30
7530;DHT22;3806;52.270;10.544;2022-12-18T13:54:33;0.40;87.90
7530;DHT22;3806;52.270;10.544;2022-12-18T13:57:00;0.40;88.00
7530;DHT22;3806;52.270;10.544;2022-12-18T14:02:00;0.30;87.90
7530;DHT22;3806;52.270;10.544;2022-12-18T14:04:31;0.30;88.00
7530;DHT22;3806;52.270;10.544;2022-12-18T14:07:02;0.20;88.00
7530;DHT22;3806;52.270;10.544;2022-12-18T14:09:34;0.10;88.60
7530;DHT22;3806;52.270;10.544;2022-12-18T14:12:00;0.00;89.20
7530;DHT22;3806;52.270;10.544;2022-12-18T14:14:47;-0.20;90.00
7530;DHT22;3806;52.270;10.544;2022-12-18T14:17:14;-0.30;90.40
7530;DHT22;3806;52.270;10.544;2022-12-18T14:19:45;-0.30;90.50
7530;DHT22;3806;52.270;10.544;2022-12-18T14:22:20;-0.40;90.70
7530;DHT22;3806;52.270;10.544;2022-12-18T14:24:47;-0.40;90.90
7530;DHT22;3806;52.270;10.544;2022-12-18T14:27:29;-0.50;91.20
7530;DHT22;3806;52.270;10.544;2022-12-18T14:29:55;-0.50;91.10
7530;DHT22;3806;52.270;10.544;2022-12-18T14:32:21;-0.50;91.10
7530;DHT22;3806;52.270;10.544;2022-12-18T14:34:53;-0.50;91.00
7530;DHT22;3806;52.270;10.544;2022-12-18T14:37:25;-0.50;90.80
7530;DHT22;3806;52.270;10.544;2022-12-18T14:40:00;-0.50;90.60
7530;DHT22;3806;52.270;10.544;2022-12-18T14:42:29;-0.60;90.50
7530;DHT22;3806;52.270;10.544;2022-12-18T14:47:59;-0.60;90.40
7530;DHT22;3806;52.270;10.544;2022-12-18T14:50:25;-0.70;90.30
7530;DHT22;3806;52.270;10.544;2022-12-18T14:52:51;-0.60;90.00
7530;DHT22;3806;52.270;10.544;2022-12-18T14:55:18;-0.70;89.60
7530;DHT22;3806;52.270;10.544;2022-12-18T14:57:45;-0.80;89.80
7530;DHT22;3806;52.270;10.544;2022-12-18T15:00:20;-0.90;90.20
7530;DHT22;3806;52.270;10.544;2022-12-18T15:02:56;-1.00;90.50
7530;DHT22;3806;52.270;10.544;2022-12-18T15:05:29;-1.00;90.60
7530;DHT22;3806;52.270;10.544;2022-12-18T15:07:58;-1.10;90.50
7530;DHT22;3806;52.270;10.544;2022-12-18T15:10:33;-1.10;90.70
7530;DHT22;3806;52.270;10.544;2022-12-18T15:18:04;-1.20;90.60
7530;DHT22;3806;52.270;10.544;2022-12-18T15:23:29;-1.30;90.60
7530;DHT22;3806;52.270;10.544;2022-12-18T15:25:59;-1.30;90.90
7530;DHT22;3806;52.270;10.544;2022-12-18T15:33:36;-1.30;90.60
7530;DHT22;3806;52.270;10.544;2022-12-18T15:36:09;-1.30;90.30
7530;DHT22;3806;52.270;10.544;2022-12-18T15:38:35;-1.30;90.30
7530;DHT22;3806;52.270;10.544;2022-12-18T15:41:01;-1.30;90.10
7530;DHT22;3806;52.270;10.544;2022-12-18T15:43:29;-1.30;90.00
7530;DHT22;3806;52.270;10.544;2022-12-18T15:46:11;-1.20;90.00
7530;DHT22;3806;52.270;10.544;2022-12-18T15:48:42;-1.20;89.90
7530;DHT22;3806;52.270;10.544;2022-12-18T15:51:18;-1.20;89.30
7530;DHT22;3806;52.270;10.544;2022-12-18T15:53:46;-1.10;88.90
7530;DHT22;3806;52.270;10.544;2022-12-18T15:56:13;-1.20;88.80
7530;DHT22;3806;52.270;10.544;2022-12-18T15:58:58;-1.10;88.80
7530;DHT22;3806;52.270;10.544;2022-12-18T16:01:27;-1.10;88.40
7530;DHT22;3806;52.270;10.544;2022-12-18T16:03:53;-1.10;88.50
7530;DHT22;3806;52.270;10.544;2022-12-18T16:06:19;-1.10;88.30
7530;DHT22;3806;52.270;10.544;2022-12-18T16:08:45;-1.10;88.10
7530;DHT22;3806;52.270;10.544;2022-12-18T16:11:24;-1.20;88.20
7530;DHT22;3806;52.270;10.544;2022-12-18T16:14:18;-1.20;88.20
7530;DHT22;3806;52.270;10.544;2022-12-18T16:16:45;-1.20;88.20
7530;DHT22;3806;52.270;10.544;2022-12-18T16:19:11;-1.20;88.40
7530;DHT22;3806;52.270;10.544;2022-12-18T16:21:37;-1.30;88.30
7530;DHT22;3806;52.270;10.544;2022-12-18T16:24:03;-1.30;88.50
7530;DHT22;3806;52.270;10.544;2022-12-18T16:26:28;-1.30;88.80
7530;DHT22;3806;52.270;10.544;2022-12-18T16:28:57;-1.40;88.90
7530;DHT22;3806;52.270;10.544;2022-12-18T16:31:22;-1.40;89.30
7530;DHT22;3806;52.270;10.544;2022-12-18T16:33:48;-1.40;89.50
7530;DHT22;3806;52.270;10.544;2022-12-18T16:36:14;-1.40;89.50
7530;DHT22;3806;52.270;10.544;2022-12-18T16:38:39;-1.50;89.90
7530;DHT22;3806;52.270;10.544;2022-12-18T16:41:18;-1.50;90.10
7530;DHT22;3806;52.270;10.544;2022-12-18T16:44:02;-1.50;90.20
7530;DHT22;3806;52.270;10.544;2022-12-18T16:46:28;-1.50;90.10
7530;DHT22;3806;52.270;10.544;2022-12-18T16:48:55;-1.50;90.40
7530;DHT22;3806;52.270;10.544;2022-12-18T16:51:21;-1.50;90.40
7530;DHT22;3806;52.270;10.544;2022-12-18T16:53:47;-1.40;90.50
7530;DHT22;3806;52.270;10.544;2022-12-18T16:56:12;-1.50;90.60
7530;DHT22;3806;52.270;10.544;2022-12-18T16:58:38;-1.60;90.50
7530;DHT22;3806;52.270;10.544;2022-12-18T17:01:08;-1.50;90.50
7530;DHT22;3806;52.270;10.544;2022-12-18T17:03:34;-1.60;90.70
7530;DHT22;3806;52.270;10.544;2022-12-18T17:06:04;-1.60;90.90
7530;DHT22;3806;52.270;10.544;2022-12-18T17:08:30;-1.60;90.90
7530;DHT22;3806;52.270;10.544;2022-12-18T17:10:56;-1.60;91.10
7530;DHT22;3806;52.270;10.544;2022-12-18T17:13:21;-1.60;91.10
7530;DHT22;3806;52.270;10.544;2022-12-18T17:15:47;-1.60;91.20
7530;DHT22;3806;52.270;10.544;2022-12-18T17:18:12;-1.60;91.30
7530;DHT22;3806;52.270;10.544;2022-12-18T17:20:38;-1.50;91.30
7530;DHT22;3806;52.270;10.544;2022-12-18T17:23:04;-1.50;91.40
7530;DHT22;3806;52.270;10.544;2022-12-18T17:25:29;-1.50;91.10
7530;DHT22;3806;52.270;10.544;2022-12-18T17:27:55;-1.50;91.20
7530;DHT22;3806;52.270;10.544;2022-12-18T17:30:20;-1.40;91.40
7530;DHT22;3806;52.270;10.544;2022-12-18T17:32:46;-1.40;91.20
7530;DHT22;3806;52.270;10.544;2022-12-18T17:35:11;-1.40;91.20
7530;DHT22;3806;52.270;10.544;2022-12-18T17:37:37;-1.40;90.90
7530;DHT22;3806;52.270;10.544;2022-12-18T17:40:03;-1.40;90.90
7530;DHT22;3806;52.270;10.544;2022-12-18T17:42:28;-1.30;90.70
7530;DHT22;3806;52.270;10.544;2022-12-18T17:44:54;-1.30;90.70
7530;DHT22;3806;52.270;10.544;2022-12-18T17:47:19;-1.40;90.80
7530;DHT22;3806;52.270;10.544;2022-12-18T17:49:45;-1.20;90.50
7530;DHT22;3806;52.270;10.544;2022-12-18T17:52:10;-1.20;90.40
7530;DHT22;3806;52.270;10.544;2022-12-18T17:54:36;-1.20;90.00